Time;durP1;ratioP1;P1;durP2;ratioP2;P2;SDS_P1;SDS_P2;PMS_P1;PMS_P2;Temp;Humidity;BMP_temperature;BMP_pressure;BME280_temperature;BME280_humidity;BME280_pressure;Samples;Min_cycle;Max_cycle;Signal;HPM_P1;HPM_P2
2022/03/06 00:02:10;;;;;;;25.85;15.43;;;0.40;99.90;;;;;;5085452;28;20042;-72
2022/03/06 00:04:36;;;;;;;26.20;15.98;;;0.40;99.90;;;;;;5082088;28;20038;-71
2022/03/06 00:07:02;;;;;;;25.00;16.33;;;0.30;99.90;;;;;;5082163;28;20048;-70
2022/03/06 00:09:28;;;;;;;28.98;17.42;;;0.30;99.90;;;;;;5083766;28;20045;-71
2022/03/06 00:11:54;;;;;;;28.33;16.48;;;0.30;99.90;;;;;;5064023;28;20105;-71
2022/03/06 00:14:20;;;;;;;29.67;16.73;;;0.30;99.90;;;;;;5085752;28;20038;-70
2022/03/06 00:16:46;;;;;;;27.20;17.33;;;0.30;99.90;;;;;;5076879;28;20041;-70
2022/03/06 00:19:12;;;;;;;25.75;16.25;;;0.20;99.90;;;;;;5098998;28;20041;-71
2022/03/06 00:21:39;;;;;;;29.58;18.13;;;0.30;99.90;;;;;;5083552;28;20048;-73
2022/03/06 00:24:05;;;;;;;27.98;16.98;;;0.20;99.90;;;;;;5071205;28;20063;-71
2022/03/06 00:26:31;;;;;;;28.90;18.02;;;0.20;99.90;;;;;;5097160;28;20041;-70
2022/03/06 00:28:57;;;;;;;30.05;19.05;;;0.20;99.90;;;;;;5075439;28;20074;-72
2022/03/06 00:31:23;;;;;;;27.52;18.60;;;0.10;99.90;;;;;;5067377;28;20475;-70
2022/03/06 00:33:49;;;;;;;28.95;18.33;;;0.10;99.90;;;;;;5079571;28;20044;-72
2022/03/06 00:36:16;;;;;;;31.40;17.67;;;0.10;99.90;;;;;;5080291;28;20491;-70
2022/03/06 00:38:41;;;;;;;28.08;18.65;;;0.10;99.90;;;;;;5096463;28;20033;-70
2022/03/06 00:41:07;;;;;;;34.33;18.73;;;0.10;99.90;;;;;;5062720;28;20040;-74
2022/03/06 00:43:33;;;;;;;30.25;18.83;;;0.10;99.90;;;;;;5097038;28;20071;-71
2022/03/06 00:45:59;;;;;;;28.33;17.98;;;0.10;99.90;;;;;;5077371;28;20037;-71
2022/03/06 00:48:24;;;;;;;27.02;18.02;;;0.10;99.90;;;;;;5093317;28;20040;-71
2022/03/06 00:50:50;;;;;;;30.27;18.80;;;0.10;99.90;;;;;;5067609;28;20114;-71
2022/03/06 00:53:16;;;;;;;28.83;18.95;;;0.10;99.90;;;;;;5063476;28;20044;-70
2022/03/06 00:55:42;;;;;;;29.17;19.00;;;0.00;99.90;;;;;;5097364;28;20048;-71
2022/03/06 00:58:09;;;;;;;29.85;19.42;;;0.00;99.90;;;;;;5068224;28;20116;-74
2022/03/06 01:00:43;;;;;;;33.08;19.33;;;0.00;99.90;;;;;;5083822;28;20106;-70
2022/03/06 01:03:10;;;;;;;30.50;19.55;;;0.00;99.90;;;;;;5082670;28;20036;-70
2022/03/06 01:05:37;;;;;;;28.08;19.38;;;0.00;99.90;;;;;;5080801;28;20048;-72
2022/03/06 01:08:04;;;;;;;33.97;20.63;;;0.00;99.90;;;;;;5066454;28;20108;-71
2022/03/06 01:10:31;;;;;;;29.63;19.55;;;0.00;99.90;;;;;;5081869;28;20128;-70
2022/03/06 01:12:57;;;;;;;27.60;18.48;;;0.00;99.90;;;;;;5083127;28;20102;-72
2022/03/06 01:15:23;;;;;;;30.52;19.38;;;0.00;99.90;;;;;;5083741;28;20041;-70
2022/03/06 01:17:49;;;;;;;28.75;20.02;;;0.00;99.90;;;;;;5065462;28;20036;-70
2022/03/06 01:20:17;;;;;;;29.33;18.67;;;0.00;99.90;;;;;;5067873;28;20104;-74
2022/03/06 01:22:44;;;;;;;28.73;19.30;;;-0.10;99.90;;;;;;5062581;28;20380;-70
2022/03/06 01:25:10;;;;;;;31.75;19.77;;;-0.10;99.90;;;;;;5079680;28;20044;-70
2022/03/06 01:27:36;;;;;;;27.52;18.92;;;-0.10;99.90;;;;;;5081385;28;20037;-71
2022/03/06 01:30:05;;;;;;;27.10;17.85;;;-0.10;99.90;;;;;;5060022;28;20360;-70
2022/03/06 01:32:34;;;;;;;30.30;19.38;;;-0.10;99.90;;;;;;5062219;28;20033;-70
2022/03/06 01:35:00;;;;;;;29.38;18.33;;;-0.10;99.90;;;;;;5096310;28;20037;-70
2022/03/06 01:37:26;;;;;;;26.50;18.42;;;-0.10;99.90;;;;;;5082562;28;20040;-70
2022/03/06 01:39:52;;;;;;;28.48;18.73;;;-0.10;99.90;;;;;;5061748;28;20387;-71
2022/03/06 01:42:18;;;;;;;28.67;18.50;;;-0.20;99.90;;;;;;5083180;28;20045;-72
2022/03/06 01:44:52;;;;;;;28.98;18.65;;;-0.10;99.90;;;;;;5081671;28;20046;-70
2022/03/06 01:47:52;;;;;;;30.08;19.33;;;-0.20;99.90;;;;;;5063495;28;20043;-70
2022/03/06 01:50:30;;;;;;;29.30;18.77;;;-0.20;99.90;;;;;;5025881;28;21522;-71
2022/03/06 01:52:57;;;;;;;27.77;18.70;;;-0.20;99.90;;;;;;5084210;28;20371;-71
2022/03/06 01:55:25;;;;;;;30.48;18.98;;;-0.30;99.90;;;;;;5066072;28;20041;-70
2022/03/06 01:57:53;;;;;;;32.25;20.30;;;-0.30;99.90;;;;;;5066476;28;20187;-70
2022/03/06 02:00:26;;;;;;;28.00;18.45;;;-0.40;99.90;;;;;;5066654;28;20041;-73
2022/03/06 02:02:52;;;;;;;31.65;20.17;;;-0.40;99.90;;;;;;5066658;28;20045;-71
2022/03/06 02:05:18;;;;;;;28.23;19.05;;;-0.40;99.90;;;;;;5079610;28;20502;-70
2022/03/06 02:07:44;;;;;;;29.10;18.92;;;-0.40;99.90;;;;;;5085560;28;20032;-70
2022/03/06 02:10:11;;;;;;;31.90;20.02;;;-0.40;99.90;;;;;;5085171;28;20064;-72
2022/03/06 02:12:37;;;;;;;33.70;21.15;;;-0.50;99.90;;;;;;5069569;28;20060;-70
2022/03/06 02:15:07;;;;;;;30.05;19.25;;;-0.50;99.90;;;;;;5084281;28;20049;-70
2022/03/06 02:17:33;;;;;;;29.48;19.67;;;-0.50;99.90;;;;;;5046291;28;20037;-71
2022/03/06 02:20:03;;;;;;;31.20;21.15;;;-0.60;99.90;;;;;;5063228;28;20036;-71
2022/03/06 02:22:30;;;;;;;;;;;-0.60;99.90;;;;;;5085993;28;20048;-70
2022/03/06 02:24:56;;;;;;;31.42;20.27;;;-0.60;99.90;;;;;;5084458;28;19989;-73
2022/03/06 02:27:22;;;;;;;30.05;20.10;;;-0.60;99.90;;;;;;5082724;28;20063;-71
2022/03/06 02:29:48;;;;;;;29.45;20.75;;;-0.60;99.90;;;;;;5072806;28;20115;-73
2022/03/06 02:32:17;;;;;;;31.55;20.40;;;-0.60;99.90;;;;;;5081075;28;20044;-73
2022/03/06 02:34:46;;;;;;;29.17;20.33;;;-0.60;99.90;;;;;;5076587;28;20556;-73
2022/03/06 02:37:13;;;;;;;26.80;18.95;;;-0.60;99.90;;;;;;5083001;28;20043;-71
2022/03/06 02:39:39;;;;;;;28.60;19.90;;;-0.60;99.90;;;;;;5081080;28;20039;-72
2022/03/06 02:42:05;;;;;;;31.88;20.55;;;-0.60;99.90;;;;;;5048550;28;20139;-70
2022/03/06 02:44:32;;;;;;;31.33;19.95;;;-0.60;99.90;;;;;;5065322;28;20041;-70
2022/03/06 02:46:57;;;;;;;29.60;19.50;;;-0.60;99.90;;;;;;5079672;28;20503;-70
2022/03/06 02:49:23;;;;;;;29.30;18.63;;;-0.60;99.90;;;;;;5084659;28;20037;-74
2022/03/06 02:51:49;;;;;;;28.98;19.25;;;-0.60;99.90;;;;;;5067475;28;20425;-70
2022/03/06 02:54:17;;;;;;;29.58;20.08;;;-0.60;99.90;;;;;;5066782;28;20077;-70
2022/03/06 02:56:44;;;;;;;29.08;19.35;;;-0.60;99.90;;;;;;5052939;28;20040;-69
2022/03/06 02:59:10;;;;;;;30.90;20.27;;;-0.60;99.90;;;;;;5066923;28;20032;-71
2022/03/06 03:01:40;;;;;;;32.83;18.80;;;-0.60;99.90;;;;;;5084519;28;20140;-70
2022/03/06 03:04:10;;;;;;;28.90;18.63;;;-0.60;99.90;;;;;;5081450;28;20037;-70
2022/03/06 03:06:36;;;;;;;28.00;18.33;;;-0.70;99.90;;;;;;5065647;28;20110;-72
2022/03/06 03:09:07;;;;;;;27.77;17.77;;;-0.60;99.90;;;;;;5074609;28;20048;-70
2022/03/06 03:11:34;;;;;;;28.45;17.38;;;-0.70;99.90;;;;;;5053184;28;20053;-70
2022/03/06 03:14:01;;;;;;;32.35;18.75;;;-0.60;99.90;;;;;;5091132;28;20067;-71
2022/03/06 03:16:27;;;;;;;27.85;18.08;;;-0.60;99.90;;;;;;5077265;28;20045;-71
2022/03/06 03:18:54;;;;;;;26.90;17.45;;;-0.60;99.90;;;;;;5076349;28;20459;-72
2022/03/06 03:21:20;;;;;;;24.80;16.98;;;-0.60;99.90;;;;;;5059602;28;20484;-70
2022/03/06 03:23:45;;;;;;;24.75;17.10;;;-0.60;99.90;;;;;;5077021;28;20068;-69
2022/03/06 03:26:11;;;;;;;24.63;17.10;;;-0.60;99.90;;;;;;5076821;28;20045;-70
2022/03/06 03:28:37;;;;;;;26.85;17.02;;;-0.60;99.90;;;;;;5094314;28;20074;-71
2022/03/06 03:31:03;;;;;;;28.20;16.35;;;-0.60;99.90;;;;;;5077812;28;20043;-72
2022/03/06 03:33:28;;;;;;;29.75;16.88;;;-0.60;99.90;;;;;;5048851;28;20037;-70
2022/03/06 03:35:54;;;;;;;28.42;16.30;;;-0.60;99.90;;;;;;5096460;28;20025;-70
2022/03/06 03:38:20;;;;;;;23.10;16.67;;;-0.60;99.90;;;;;;5064558;28;20037;-70
2022/03/06 03:40:47;;;;;;;25.98;15.90;;;-0.60;99.90;;;;;;5064542;28;20104;-72
2022/03/06 03:43:13;;;;;;;26.35;16.95;;;-0.60;99.90;;;;;;5097621;28;20041;-73
2022/03/06 03:45:38;;;;;;;26.27;17.20;;;-0.50;99.90;;;;;;5081867;28;20060;-70
2022/03/06 03:48:04;;;;;;;24.90;15.10;;;-0.50;99.90;;;;;;5097182;28;20041;-70
2022/03/06 03:50:30;;;;;;;23.98;15.50;;;-0.50;99.90;;;;;;5096559;28;20033;-74
2022/03/06 03:52:55;;;;;;;25.05;16.23;;;-0.50;99.90;;;;;;5059635;28;20067;-70
2022/03/06 03:55:21;;;;;;;26.02;16.80;;;-0.50;99.90;;;;;;5067632;28;20067;-70
2022/03/06 03:57:47;;;;;;;21.67;15.80;;;-0.50;99.90;;;;;;5063728;28;20100;-72
2022/03/06 04:00:13;;;;;;;24.33;16.00;;;-0.50;99.90;;;;;;5077949;28;20119;-73
2022/03/06 04:02:38;;;;;;;25.50;15.23;;;-0.50;99.90;;;;;;5082751;28;20032;-70
2022/03/06 04:05:04;;;;;;;23.60;15.50;;;-0.40;99.90;;;;;;5073689;28;20053;-69
2022/03/06 04:07:30;;;;;;;25.10;15.50;;;-0.50;99.90;;;;;;5052801;28;20050;-72
2022/03/06 04:09:56;;;;;;;20.85;15.02;;;-0.50;99.90;;;;;;5083157;28;20047;-71
2022/03/06 04:12:21;;;;;;;22.77;14.98;;;-0.50;99.90;;;;;;5083865;28;20044;-71
2022/03/06 04:14:47;;;;;;;23.75;14.75;;;-0.50;99.90;;;;;;5082377;28;20452;-70
2022/03/06 04:17:16;;;;;;;23.65;15.18;;;-0.50;99.90;;;;;;5065315;28;20080;-73
2022/03/06 04:19:41;;;;;;;22.55;14.63;;;-0.50;99.90;;;;;;5066423;28;20522;-71
2022/03/06 04:22:07;;;;;;;23.05;15.02;;;-0.50;99.90;;;;;;5083735;28;20415;-72
2022/03/06 04:24:33;;;;;;;22.98;15.18;;;-0.50;99.90;;;;;;5070542;28;20466;-70
2022/03/06 04:26:58;;;;;;;20.67;14.45;;;-0.50;99.90;;;;;;5077501;28;20039;-70
2022/03/06 04:29:24;;;;;;;22.50;15.38;;;-0.50;99.90;;;;;;5062786;28;20052;-71
2022/03/06 04:31:50;;;;;;;21.00;14.75;;;-0.50;99.90;;;;;;5050798;28;20041;-70
2022/03/06 04:34:16;;;;;;;21.70;14.63;;;-0.50;99.90;;;;;;5076861;28;20033;-73
2022/03/06 04:36:41;;;;;;;20.08;14.35;;;-0.50;99.90;;;;;;5063691;28;20037;-72
2022/03/06 04:39:08;;;;;;;23.08;14.85;;;-0.50;99.90;;;;;;5068079;28;20044;-73
2022/03/06 04:41:34;;;;;;;22.67;14.10;;;-0.50;99.90;;;;;;5083630;28;20037;-71
2022/03/06 04:43:59;;;;;;;21.75;14.82;;;-0.50;99.90;;;;;;5082942;28;20035;-72
2022/03/06 04:46:25;;;;;;;21.17;14.73;;;-0.50;99.90;;;;;;5055954;28;20045;-71
2022/03/06 04:48:51;;;;;;;19.63;14.15;;;-0.60;99.90;;;;;;5096799;28;20048;-72
2022/03/06 04:51:17;;;;;;;20.15;14.30;;;-0.50;99.90;;;;;;5083049;28;20053;-71
2022/03/06 04:53:43;;;;;;;19.88;14.57;;;-0.60;99.90;;;;;;5076731;28;20411;-70
2022/03/06 04:56:09;;;;;;;21.90;14.82;;;-0.60;99.90;;;;;;5089652;28;20545;-72
2022/03/06 04:58:35;;;;;;;19.83;13.85;;;-0.60;99.90;;;;;;5078793;28;20072;-72
2022/03/06 05:01:02;;;;;;;21.55;14.77;;;-0.60;99.90;;;;;;5083267;28;20036;-70
2022/03/06 05:03:28;;;;;;;21.15;15.00;;;-0.60;99.90;;;;;;5082687;28;20097;-70
2022/03/06 05:05:54;;;;;;;24.27;15.27;;;-0.60;99.90;;;;;;5065881;28;20042;-70
2022/03/06 05:08:20;;;;;;;22.20;15.15;;;-0.70;99.90;;;;;;5083120;28;20048;-70
2022/03/06 05:10:45;;;;;;;20.15;14.13;;;-0.60;99.90;;;;;;5066243;28;20095;-70
2022/03/06 05:13:11;;;;;;;21.75;14.05;;;-0.70;99.90;;;;;;5082791;28;20044;-71
2022/03/06 05:15:37;;;;;;;17.98;14.02;;;-0.70;99.90;;;;;;5081662;28;20482;-70
2022/03/06 05:18:03;;;;;;;17.65;13.85;;;-0.70;99.90;;;;;;5051203;28;20054;-71
2022/03/06 05:20:29;;;;;;;22.83;14.60;;;-0.70;99.90;;;;;;5096144;28;20036;-70
2022/03/06 05:22:55;;;;;;;21.58;14.35;;;-0.70;99.90;;;;;;5096797;28;20127;-70
2022/03/06 05:25:21;;;;;;;23.00;14.38;;;-0.70;99.90;;;;;;5078170;28;20121;-70
2022/03/06 05:27:46;;;;;;;20.98;13.70;;;-0.70;99.90;;;;;;5081077;28;20056;-70
2022/03/06 05:30:13;;;;;;;19.08;13.65;;;-0.70;99.90;;;;;;5080827;28;20522;-72
2022/03/06 05:32:40;;;;;;;18.38;13.20;;;-0.70;99.90;;;;;;5081897;28;20053;-72
2022/03/06 05:35:06;;;;;;;18.02;12.77;;;-0.70;99.90;;;;;;5066125;28;20036;-71
2022/03/06 05:37:32;;;;;;;18.35;13.20;;;-0.70;99.90;;;;;;5080567;28;20048;-71
2022/03/06 05:39:58;;;;;;;20.88;13.23;;;-0.70;99.90;;;;;;5081276;28;20041;-70
2022/03/06 05:42:24;;;;;;;16.75;13.07;;;-0.70;99.90;;;;;;5064758;28;20386;-71
2022/03/06 05:44:53;;;;;;;18.20;12.20;;;-0.70;99.90;;;;;;5062632;28;20037;-71
2022/03/06 05:47:18;;;;;;;15.98;12.63;;;-0.70;99.90;;;;;;5062445;28;20076;-69
2022/03/06 05:49:44;;;;;;;16.20;11.70;;;-0.70;99.90;;;;;;5062535;28;20040;-72
2022/03/06 05:52:10;;;;;;;16.88;11.95;;;-0.80;99.90;;;;;;5095996;28;20041;-70
2022/03/06 05:54:35;;;;;;;18.55;12.20;;;-0.80;99.90;;;;;;5078634;28;20037;-71
2022/03/06 05:57:01;;;;;;;17.00;11.20;;;-0.80;99.90;;;;;;5076345;28;20041;-70
2022/03/06 05:59:27;;;;;;;15.40;12.27;;;-0.80;99.90;;;;;;5058598;28;20091;-70
2022/03/06 06:01:52;;;;;;;19.98;12.40;;;-0.80;99.90;;;;;;5092016;28;20036;-69
2022/03/06 06:04:19;;;;;;;18.55;11.85;;;-0.70;99.90;;;;;;5079681;28;20044;-70
2022/03/06 06:06:45;;;;;;;17.17;11.82;;;-0.80;99.90;;;;;;5094182;28;20047;-73
2022/03/06 06:09:10;;;;;;;16.25;12.02;;;-0.70;99.90;;;;;;5049310;28;20049;-72
2022/03/06 06:11:36;;;;;;;16.75;11.50;;;-0.70;99.90;;;;;;5062497;28;20405;-70
2022/03/06 06:14:02;;;;;;;17.00;11.43;;;-0.70;99.90;;;;;;5061878;28;20036;-70
2022/03/06 06:16:28;;;;;;;19.05;11.35;;;-0.70;99.90;;;;;;5062514;28;20045;-71
2022/03/06 06:18:54;;;;;;;16.13;10.98;;;-0.70;99.90;;;;;;5095446;28;20048;-70
2022/03/06 06:21:19;;;;;;;14.93;10.85;;;-0.80;99.90;;;;;;5078240;28;20032;-70
2022/03/06 06:23:46;;;;;;;16.13;10.60;;;-0.80;99.90;;;;;;5078463;28;20064;-70
2022/03/06 06:26:12;;;;;;;13.38;10.68;;;-0.70;99.90;;;;;;5094983;28;20041;-70
2022/03/06 06:28:37;;;;;;;15.23;10.85;;;-0.70;99.90;;;;;;5096162;28;20060;-72
2022/03/06 06:31:04;;;;;;;12.27;9.52;;;-0.60;99.90;;;;;;5061138;28;20052;-70
2022/03/06 06:33:30;;;;;;;13.15;9.18;;;-0.60;99.90;;;;;;5062371;28;20101;-70
2022/03/06 06:35:56;;;;;;;15.23;9.85;;;-0.60;99.90;;;;;;5057848;28;20082;-73
2022/03/06 06:38:22;;;;;;;16.23;9.50;;;-0.50;99.90;;;;;;5080891;28;20045;-70
2022/03/06 06:40:49;;;;;;;13.40;9.00;;;-0.50;99.90;;;;;;5052661;28;20045;-71
2022/03/06 06:43:15;;;;;;;14.10;8.80;;;-0.40;99.90;;;;;;5068948;28;20044;-70
2022/03/06 06:45:41;;;;;;;13.65;8.55;;;-0.40;99.90;;;;;;5085075;28;20040;-70
2022/03/06 06:48:06;;;;;;;12.40;8.13;;;-0.40;99.90;;;;;;5056659;28;20041;-73
2022/03/06 06:50:33;;;;;;;12.48;7.57;;;-0.30;99.90;;;;;;5064134;28;20036;-73
2022/03/06 06:52:58;;;;;;;14.60;7.53;;;-0.30;99.90;;;;;;5048862;28;20045;-71
2022/03/06 06:55:24;;;;;;;10.88;7.38;;;-0.20;99.90;;;;;;5058099;28;20044;-71
2022/03/06 06:57:50;;;;;;;10.43;7.93;;;-0.20;99.90;;;;;;5065760;28;20119;-71
2022/03/06 07:00:16;;;;;;;13.63;7.40;;;-0.10;99.90;;;;;;5070913;28;20036;-72
2022/03/06 07:02:42;;;;;;;11.57;7.43;;;-0.10;99.90;;;;;;5061930;28;20044;-71
2022/03/06 07:05:12;;;;;;;10.13;6.70;;;0.00;99.90;;;;;;5067115;28;20045;-70
2022/03/06 07:07:37;;;;;;;7.82;6.22;;;0.10;99.90;;;;;;5083840;28;20081;-71
2022/03/06 07:10:07;;;;;;;10.60;6.60;;;0.20;99.90;;;;;;5085360;28;20071;-69
2022/03/06 07:12:43;;;;;;;;;;;0.30;99.90;;;;;;5085483;28;20048;-69
2022/03/06 07:15:11;;;;;;;11.52;6.68;;;0.30;99.90;;;;;;5087121;28;19938;-71
2022/03/06 07:17:36;;;;;;;7.70;5.93;;;0.30;99.90;;;;;;5076735;28;20048;-72
2022/03/06 07:20:02;;;;;;;11.98;6.65;;;0.40;99.90;;;;;;5076417;28;20063;-72
2022/03/06 07:22:28;;;;;;;7.88;5.90;;;0.40;99.90;;;;;;5073358;28;20059;-71
2022/03/06 07:24:53;;;;;;;10.57;5.90;;;0.50;99.90;;;;;;5065867;28;20140;-71
2022/03/06 07:27:19;;;;;;;10.38;5.80;;;0.50;99.90;;;;;;5066276;28;20037;-71
2022/03/06 07:29:45;;;;;;;10.52;6.28;;;0.50;99.90;;;;;;5066196;28;20071;-72
2022/03/06 07:32:10;;;;;;;11.52;6.55;;;0.60;99.90;;;;;;5049935;28;20044;-70
2022/03/06 07:34:36;;;;;;;11.48;6.07;;;0.60;99.90;;;;;;5067266;28;20037;-69
2022/03/06 07:37:02;;;;;;;9.00;5.97;;;0.70;99.90;;;;;;5067688;28;20037;-72
2022/03/06 07:39:27;;;;;;;8.88;5.90;;;0.70;99.90;;;;;;5066483;28;20045;-70
2022/03/06 07:41:53;;;;;;;9.23;6.05;;;0.80;99.90;;;;;;5067279;28;20044;-69
2022/03/06 07:44:19;;;;;;;9.93;6.22;;;0.80;99.90;;;;;;5067687;28;20039;-73
2022/03/06 07:46:45;;;;;;;8.90;5.88;;;0.80;99.90;;;;;;5067035;28;20040;-70
2022/03/06 07:49:11;;;;;;;10.55;6.68;;;0.80;99.90;;;;;;5066915;28;20056;-71
2022/03/06 07:51:37;;;;;;;9.88;5.97;;;0.80;99.90;;;;;;5069593;28;20033;-74
2022/03/06 07:54:03;;;;;;;8.40;5.43;;;0.90;99.90;;;;;;5086383;28;20430;-71
2022/03/06 07:56:29;;;;;;;8.85;5.63;;;0.90;99.90;;;;;;5069605;28;20043;-71
2022/03/06 07:58:54;;;;;;;7.35;5.28;;;1.00;99.90;;;;;;5051048;28;20079;-73
2022/03/06 08:01:20;;;;;;;10.57;5.47;;;1.10;99.90;;;;;;5068412;28;20045;-72
2022/03/06 08:03:46;;;;;;;7.57;5.47;;;1.30;99.90;;;;;;5068935;28;20174;-71
2022/03/06 08:06:12;;;;;;;9.13;5.60;;;1.30;99.90;;;;;;5067720;28;20092;-72
2022/03/06 08:08:37;;;;;;;7.20;5.10;;;1.30;99.90;;;;;;5067898;28;20048;-70
2022/03/06 08:11:03;;;;;;;6.63;4.95;;;1.50;99.90;;;;;;5069292;28;20072;-73
2022/03/06 08:13:29;;;;;;;11.73;5.72;;;1.60;99.90;;;;;;5069083;28;20049;-70
2022/03/06 08:15:54;;;;;;;8.35;4.72;;;1.80;99.90;;;;;;5068405;28;20041;-72
2022/03/06 08:18:20;;;;;;;6.63;4.80;;;1.80;99.90;;;;;;5065967;28;20044;-71
2022/03/06 08:20:46;;;;;;;6.85;4.68;;;1.90;99.90;;;;;;5069117;28;20060;-70
2022/03/06 08:23:12;;;;;;;7.22;5.18;;;1.90;99.90;;;;;;5086700;28;20079;-71
2022/03/06 08:25:37;;;;;;;9.32;4.80;;;2.10;99.90;;;;;;5090312;28;20032;-71
2022/03/06 08:28:03;;;;;;;7.47;4.80;;;2.20;99.90;;;;;;5080684;28;20036;-71
2022/03/06 08:30:29;;;;;;;6.95;5.07;;;2.30;99.90;;;;;;5069263;28;20041;-71
2022/03/06 08:32:55;;;;;;;7.53;4.88;;;2.40;99.90;;;;;;5070192;28;20048;-71
2022/03/06 08:35:20;;;;;;;7.38;4.60;;;2.50;99.90;;;;;;5069418;28;20048;-71
2022/03/06 08:37:46;;;;;;;5.97;4.70;;;2.60;99.90;;;;;;5071225;28;20047;-71
2022/03/06 08:40:11;;;;;;;7.03;4.25;;;2.70;99.90;;;;;;5070264;28;20041;-73
2022/03/06 08:42:37;;;;;;;9.32;4.28;;;2.80;99.90;;;;;;5070091;28;20039;-70
2022/03/06 08:45:03;;;;;;;6.53;3.83;;;2.80;99.90;;;;;;5070848;28;20068;-71
2022/03/06 08:47:29;;;;;;;9.27;4.10;;;3.00;99.90;;;;;;5077379;28;20100;-71
2022/03/06 08:49:55;;;;;;;5.25;3.72;;;3.10;99.90;;;;;;5088395;28;20082;-71
2022/03/06 08:52:20;;;;;;;8.32;4.18;;;3.20;99.90;;;;;;5090576;28;20064;-73
2022/03/06 08:54:46;;;;;;;4.50;3.90;;;3.30;99.90;;;;;;5090195;28;20098;-71
2022/03/06 08:57:11;;;;;;;7.57;3.95;;;3.40;99.90;;;;;;5092150;28;20486;-71
2022/03/06 08:59:37;;;;;;;9.77;4.05;;;3.50;99.90;;;;;;5090156;28;20044;-70
2022/03/06 09:02:03;;;;;;;6.75;4.00;;;3.70;99.90;;;;;;5093047;28;20219;-70
2022/03/06 09:04:31;;;;;;;6.70;3.78;;;3.90;99.90;;;;;;5074733;28;20025;-72
2022/03/06 09:06:57;;;;;;;5.63;3.83;;;4.00;99.90;;;;;;5090569;28;20135;-71
2022/03/06 09:09:23;;;;;;;6.75;3.83;;;4.10;99.90;;;;;;5091652;28;20044;-72
2022/03/06 09:11:48;;;;;;;6.90;4.03;;;4.10;99.90;;;;;;5090475;28;20064;-71
2022/03/06 09:14:14;;;;;;;6.10;4.03;;;4.20;99.90;;;;;;5090624;28;20161;-70
2022/03/06 09:16:39;;;;;;;7.15;4.10;;;4.30;99.90;;;;;;5091927;28;20075;-71
2022/03/06 09:19:05;;;;;;;6.60;4.28;;;4.30;99.90;;;;;;5073709;28;20098;-71
2022/03/06 09:21:31;;;;;;;5.13;4.05;;;4.40;99.90;;;;;;5070953;28;20037;-70
2022/03/06 09:23:56;;;;;;;5.85;4.03;;;4.40;99.90;;;;;;5071362;28;20043;-70
2022/03/06 09:26:22;;;;;;;8.15;4.00;;;4.60;99.90;;;;;;5072344;28;20037;-71
2022/03/06 09:28:48;;;;;;;5.32;3.70;;;4.60;99.90;;;;;;5073076;28;20066;-69
2022/03/06 09:31:14;;;;;;;5.53;3.92;;;4.70;99.90;;;;;;5072290;28;20104;-71
2022/03/06 09:33:40;;;;;;;6.13;4.20;;;4.80;99.90;;;;;;5071107;28;20044;-70
2022/03/06 09:36:05;;;;;;;4.85;4.00;;;4.90;99.90;;;;;;5072254;28;20032;-71
2022/03/06 09:38:31;;;;;;;7.53;4.03;;;5.00;99.90;;;;;;5071590;28;20041;-71
2022/03/06 09:41:02;;;;;;;5.88;3.83;;;5.00;99.90;;;;;;5055262;28;20029;-71
2022/03/06 09:43:29;;;;;;;10.02;4.20;;;5.00;99.90;;;;;;5082096;28;20037;-72
2022/03/06 09:46:03;;;;;;;7.57;4.30;;;5.10;99.90;;;;;;5071337;28;20037;-71
2022/03/06 09:48:30;;;;;;;5.43;4.00;;;5.20;99.90;;;;;;5070489;28;20036;-71
2022/03/06 09:50:56;;;;;;;4.85;4.32;;;5.20;99.90;;;;;;5069744;28;20048;-71
2022/03/06 09:53:22;;;;;;;5.72;4.05;;;5.20;99.90;;;;;;5072426;28;20041;-71
2022/03/06 09:55:48;;;;;;;6.15;4.45;;;5.20;99.90;;;;;;5071335;28;20044;-71
2022/03/06 09:58:14;;;;;;;5.35;3.70;;;5.30;99.90;;;;;;5050670;28;20491;-70
2022/03/06 10:00:41;;;;;;;7.45;4.25;;;5.40;99.90;;;;;;5072376;28;20045;-70
2022/03/06 10:03:06;;;;;;;5.75;4.20;;;5.40;99.90;;;;;;5072085;28;20041;-71
2022/03/06 10:05:34;;;;;;;6.18;4.30;;;5.50;99.90;;;;;;5072635;28;20040;-71
2022/03/06 10:08:23;;;;;;;6.75;4.30;;;5.50;99.90;;;;;;5074153;28;20041;-70
2022/03/06 10:10:52;;;;;;;6.43;4.10;;;5.60;99.10;;;;;;5071194;28;20114;-71
2022/03/06 10:13:19;;;;;;;8.63;4.40;;;5.60;99.90;;;;;;5073161;28;20040;-71
2022/03/06 10:16:13;;;;;;;7.00;3.85;;;5.60;99.90;;;;;;5076433;28;20091;-71
2022/03/06 10:18:41;;;;;;;5.78;4.30;;;5.60;95.20;;;;;;5060053;28;20048;-71
2022/03/06 10:21:11;;;;;;;7.40;4.40;;;5.70;99.00;;;;;;5076509;28;20040;-71
2022/03/06 10:23:39;;;;;;;5.90;3.88;;;5.80;99.10;;;;;;5076239;28;20029;-71
2022/03/06 10:26:16;;;;;;;4.95;3.92;;;5.90;99.00;;;;;;5076358;28;20041;-71
2022/03/06 10:28:43;;;;;;;6.20;4.20;;;5.90;96.70;;;;;;5076600;28;20511;-71
2022/03/06 10:31:09;;;;;;;7.93;4.32;;;6.00;95.80;;;;;;5076491;28;20032;-70
2022/03/06 10:33:35;;;;;;;6.85;4.18;;;6.10;94.20;;;;;;5077281;28;20037;-72
2022/03/06 10:36:02;;;;;;;4.78;4.13;;;6.10;93.00;;;;;;5076514;28;20125;-71
2022/03/06 10:38:35;;;;;;;6.22;4.10;;;6.10;93.60;;;;;;5075994;28;20041;-72
2022/03/06 10:41:13;;;;;;;6.45;4.15;;;6.20;90.30;;;;;;5077940;28;20068;-71
2022/03/06 10:43:40;;;;;;;6.68;3.95;;;6.20;90.10;;;;;;5078207;28;20044;-73
2022/03/06 10:46:12;;;;;;;6.50;4.25;;;6.20;89.80;;;;;;5085323;28;20035;-71
2022/03/06 10:48:40;;;;;;;5.90;3.90;;;6.30;86.60;;;;;;5096177;28;20040;-70
2022/03/06 10:51:08;;;;;;;5.90;3.85;;;6.40;86.80;;;;;;5086737;28;20036;-71
2022/03/06 10:53:34;;;;;;;8.77;4.32;;;6.50;86.70;;;;;;5076447;28;20100;-71
2022/03/06 10:56:12;;;;;;;5.20;3.33;;;6.60;84.70;;;;;;5077445;28;20044;-71
2022/03/06 10:58:44;;;;;;;4.95;3.33;;;6.70;78.20;;;;;;5075275;28;20033;-71
2022/03/06 11:01:10;;;;;;;5.75;3.53;;;6.70;76.50;;;;;;5077113;28;20061;-70
2022/03/06 11:03:36;;;;;;;4.93;3.60;;;6.60;76.20;;;;;;5076013;28;20029;-70
2022/03/06 11:06:07;;;;;;;6.07;3.50;;;6.70;76.90;;;;;;5076069;28;20041;-70
2022/03/06 11:08:34;;;;;;;6.78;3.60;;;6.80;75.70;;;;;;5075999;28;20044;-73
2022/03/06 11:11:01;;;;;;;7.18;3.55;;;6.80;75.10;;;;;;5075983;28;20113;-71
2022/03/06 11:13:30;;;;;;;4.50;3.00;;;6.90;75.40;;;;;;5077342;28;20051;-70
2022/03/06 11:15:57;;;;;;;5.10;3.33;;;6.90;73.50;;;;;;5083897;28;20051;-71
2022/03/06 11:18:24;;;;;;;3.25;2.80;;;6.90;73.10;;;;;;5080015;28;20291;-70
2022/03/06 11:20:51;;;;;;;6.00;3.30;;;7.10;72.40;;;;;;5096323;28;20060;-71
2022/03/06 11:23:29;;;;;;;5.05;3.00;;;7.20;72.30;;;;;;5097057;28;20042;-70
2022/03/06 11:26:09;;;;;;;6.68;3.08;;;7.20;70.90;;;;;;5078575;28;20054;-70
2022/03/06 11:29:02;;;;;;;5.07;3.08;;;7.30;70.70;;;;;;5096508;28;20048;-70
2022/03/06 11:31:48;;;;;;;3.15;2.75;;;7.30;70.40;;;;;;5092297;28;20041;-70
2022/03/06 11:34:26;;;;;;;4.45;2.22;;;7.40;68.70;;;;;;5075020;28;20067;-70
2022/03/06 11:36:53;;;;;;;4.55;2.80;;;7.50;68.50;;;;;;5096527;28;20070;-71
2022/03/06 11:39:30;;;;;;;3.67;2.33;;;7.60;69.70;;;;;;5080979;28;20100;-70
2022/03/06 11:42:01;;;;;;;3.85;2.70;;;7.70;68.60;;;;;;5075926;28;20036;-71
2022/03/06 11:44:34;;;;;;;262.67;16.08;;;7.80;69.10;;;;;;5095530;28;20040;-72
2022/03/06 11:47:10;;;;;;;7.60;2.90;;;7.80;68.40;;;;;;5096228;28;20043;-71
2022/03/06 11:49:36;;;;;;;4.57;2.60;;;7.90;68.30;;;;;;5080364;28;20025;-72
2022/03/06 11:52:28;;;;;;;4.25;2.60;;;8.00;67.90;;;;;;5097327;28;20035;-71
2022/03/06 11:54:56;;;;;;;3.35;2.47;;;8.10;66.10;;;;;;5097218;28;20025;-72
2022/03/06 11:57:40;;;;;;;3.30;2.50;;;8.20;67.10;;;;;;5096492;28;20123;-71
2022/03/06 12:00:20;;;;;;;6.32;2.50;;;8.40;66.90;;;;;;5096171;28;20040;-71
2022/03/06 12:03:04;;;;;;;5.00;2.70;;;8.40;65.00;;;;;;5096871;28;20033;-72
2022/03/06 12:05:53;;;;;;;6.50;2.60;;;8.40;64.70;;;;;;5097078;28;20027;-71
2022/03/06 12:08:22;;;;;;;3.55;2.75;;;8.50;64.10;;;;;;5096488;28;20075;-72
2022/03/06 12:10:48;;;;;;;4.53;2.95;;;8.50;65.40;;;;;;5096402;28;20097;-72
2022/03/06 12:13:22;;;;;;;5.05;2.58;;;8.50;65.80;;;;;;5091528;28;20044;-71
2022/03/06 12:16:01;;;;;;;4.30;2.60;;;8.50;65.90;;;;;;5074146;28;20049;-72
2022/03/06 12:18:27;;;;;;;4.70;2.43;;;8.60;65.60;;;;;;5077009;28;20063;-72
2022/03/06 12:20:52;;;;;;;6.60;2.80;;;8.70;66.30;;;;;;5076598;28;20271;-70
2022/03/06 12:23:29;;;;;;;5.05;3.00;;;8.80;66.20;;;;;;5076336;28;20116;-71
2022/03/06 12:25:57;;;;;;;4.72;2.65;;;8.80;64.90;;;;;;5075826;28;20027;-72
2022/03/06 12:28:31;;;;;;;4.60;3.08;;;8.90;65.00;;;;;;5076107;28;20049;-73
2022/03/06 12:30:58;;;;;;;4.57;2.70;;;8.80;64.80;;;;;;5079489;28;20054;-71
2022/03/06 12:33:40;;;;;;;5.07;2.75;;;8.90;65.30;;;;;;5096148;28;20024;-72
2022/03/06 12:36:09;;;;;;;4.85;2.80;;;8.90;65.00;;;;;;5094732;28;20049;-72
2022/03/06 12:38:36;;;;;;;4.32;2.90;;;8.90;64.40;;;;;;5096113;28;20036;-71
2022/03/06 12:41:03;;;;;;;5.63;2.90;;;9.00;65.40;;;;;;5080329;28;20041;-71
2022/03/06 12:43:30;;;;;;;5.55;2.80;;;9.00;65.10;;;;;;5070981;28;20048;-72